Airfield :
LOGIN :

Register | Disclaimer

   EN    FR    IT 

 










Legend :    VFR   Marginal VFR   IFR   Intensive IFR   Very Intensive IFR
Visi :
Ceiling :
>= 8 km
>= 3000ft
5 to 8 km
1000 to 3000 ft
1500m to 5 km
500 to 1000 ft
800 to 1500m
200 to 500 ft
< 800m
< 200 ft
Symbols :   Thunderstorms  Fog  Heavy snow  Heavy precipitations  Wind > 20 kt
SIGMETs :     Misc.  Thunderstorms  Icing  Turbulence  Mountain Waves  Volcanic Ashes







- Airport Elevation : 122 ft
- IATA code : TXL


EDDT - Berlin Tegel Int.

CURRENT METAR :
  • 190250Z 33003KT 290V010 CAVOK 08/07 Q1024 NOSIG

EXPIRED METARs :
  • 190220Z 36004KT 300V030 CAVOK 09/07 Q1024
  • 190150Z 36005KT 330V050 CAVOK 10/07 Q1024
  • 190120Z 35005KT 310V040 CAVOK 10/07 Q1024
  • 190050Z 35005KT 320V040 9999 SCT037 BKN046 10/07 Q1024
  • 190020Z 36006KT 320V040 9999 SCT034 SCT045 10/08 Q1024

TAF TAF EDDT
Valid from the 19 at 00:00 until the 20 at 00:00 UTC


182300Z 1900/1924 33005KT 9999 SCT030
PROB30
TEMPO 1902/1907 2000 BCFG
No reported NOTAMs for that airfield.



MET'MAP, your aeronautical weather chart ! - Copyright ORBIFLY December 2007 - Disclaimer

ORBIFLY MET'MAP TEAM :

Programming & Development : Alexandra Zaïnal
Concept & Development : Baudouin d'Aumeries
Co-Development & Prog : Marc-Olivier Méhu
Technical & hardware support : Manuel Goepfert

Contact : metmap@orbifly.com




SOURCES & CREDITS :

   NOAA